Aérodrome :
LOGIN :

S'inscrire | Disclaimer

   EN    FR    IT 

 










Légende :    VFR   VFR Marginal   IFR   IFR Intensif   IFR Très Intensif
Visi : 
Plafond : 
>= 8 km
>= 3000ft
5 à 8 km
1000 à 3000 ft
1500m à 5 km
500 à 1000 ft
800 à 1500m
200 à 500 ft
< 800m
< 200 ft
Symboles :   Orages  Brouillard  Fortes neiges  Fortes précipitations  Vent > 20 kt
SIGMETs :   Divers  Orages  Givrage  Turbulence  Onde Orograph.  Cendres Volcan.






- Altitude de l'aérodrome : 102 ft
- Code IATA : KEL


EDHK - Holtenau

DERNIER METAR :
  • 180720Z 25013KT 9999 -SHRA FEW020 SCT034 05/01 Q1010

METARs EXPIRÉS :
  • 180650Z 25011KT 220V280 9999 -SHRA BKN019 05/01 Q1010
  • 180620Z 25012KT 210V270 9999 -SHRA BKN019 05/02 Q1009
  • 180550Z 25013KT 9999 -SHRA SCT020 06/02 Q1009
  • 180520Z 25011KT 220V280 9999 -SHRA BKN020 06/03 Q1009

TAF TAF EDHK
Valide du 18 à 06h jusqu'au 18 à 15h UTC


180525Z 1806/1815 24015G30KT 9999 BKN025
PROB30
TEMPO 1809/1815 25020G35KT SHRA SCT010 BKN015CB



MET'MAP, la Météo Aéronautique d'un coup d'oeil ! - Copyright ORBIFLY Décembre 2007 - Disclaimer

ORBIFLY MET'MAP TEAM :

Programmation & Développement : Alexandra Zaïnal
Sur une idée originale de : Baudouin d'Aumeries
Assistance à la programmation : Marc-Olivier Méhu
Soutien technique & logistique : Manuel Goepfert

Contact : metmap@orbifly.com




SOURCES & CREDITS :

   NOAA